Saint-Alexandre-De-Kamouraska, Canada
Current Conditions -  °F | °C
As of 12:53 PM on Sunday 21 Dec 2014 (Local Time) from KFVE Reporting Station
Overcast Overcast  
Wind Chill: 19°   Ceiling: 700
Heat Index: 19°   Visibility: 10mi
Dew Point: 17°   Wind: 3mph
Humidity: 92%   Direction: 180°S
Pressure: 30.3"   Gusts: NA
Location:  47.68°N, 69.63°W
Report Text: KFVE 211753Z AUTO 18003KT 10SM BKN007 OVC011 M07/M08 A3030 RMK AO2 SLP278 T10721083 11072 21094 56007
Loading
Personal Weather Stations






























Interactive Weather Map New forecast layout! Learn more

10-Day Weather Forecast

Advertisements
Track Severe Weather on mobile